Time;durP1;ratioP1;P1;durP2;ratioP2;P2;SDS_P1;SDS_P2;PMS_P1;PMS_P2;Temp;Humidity;BMP_temperature;BMP_pressure;BME280_temperature;BME280_humidity;BME280_pressure;Samples;Min_cycle;Max_cycle;Signal;HPM_P1;HPM_P2
2023/03/15 00:01:31;;;;;;;12.05;1.75;;;5.30;99.90;;;;;;5050560;28;20123;-65
2023/03/15 00:03:57;;;;;;;7.63;1.75;;;5.20;99.90;;;;;;5049554;28;20135;-65
2023/03/15 00:06:23;;;;;;;6.32;1.45;;;4.90;99.90;;;;;;5050048;28;20546;-65
2023/03/15 00:08:48;;;;;;;10.02;1.70;;;5.00;99.90;;;;;;5047018;28;20494;-65
2023/03/15 00:11:15;;;;;;;7.30;1.83;;;5.00;99.90;;;;;;5051199;28;20068;-65
2023/03/15 00:13:41;;;;;;;7.65;1.88;;;5.30;99.90;;;;;;5048432;28;20087;-65
2023/03/15 00:16:07;;;;;;;8.02;2.05;;;4.90;99.90;;;;;;5051148;28;20043;-65
2023/03/15 00:18:33;;;;;;;10.23;2.22;;;5.00;99.90;;;;;;5039914;28;20033;-65
2023/03/15 00:20:59;;;;;;;8.98;1.85;;;5.40;99.90;;;;;;5050967;28;20108;-65
2023/03/15 00:23:24;;;;;;;9.05;1.85;;;5.20;99.90;;;;;;5048171;28;20045;-65
2023/03/15 00:25:51;;;;;;;13.70;1.98;;;5.40;99.90;;;;;;5042471;28;20463;-65
2023/03/15 00:28:17;;;;;;;12.93;2.30;;;5.40;99.90;;;;;;5048533;28;20036;-65
2023/03/15 00:30:44;;;;;;;11.10;2.40;;;5.40;99.90;;;;;;5050201;28;20040;-65
2023/03/15 00:33:13;;;;;;;11.75;2.00;;;5.60;99.90;;;;;;5050877;28;20067;-65
2023/03/15 00:35:40;;;;;;;15.23;2.42;;;5.40;99.90;;;;;;5038783;28;20091;-65
2023/03/15 00:38:07;;;;;;;11.35;2.28;;;5.40;91.10;;;;;;5047548;28;20175;-65
2023/03/15 00:40:33;;;;;;;10.15;2.40;;;5.40;61.10;;;;;;5050530;28;20075;-65
2023/03/15 00:42:58;;;;;;;9.40;2.15;;;5.50;30.50;;;;;;5050220;28;20403;-65
2023/03/15 00:45:24;;;;;;;13.90;2.63;;;5.60;14.10;;;;;;5041458;28;20133;-65
2023/03/15 00:47:51;;;;;;;9.00;1.98;;;5.40;7.40;;;;;;5032624;28;20049;-65
2023/03/15 00:50:18;;;;;;;7.13;1.90;;;5.20;54.50;;;;;;5030602;28;20049;-65
2023/03/15 00:52:43;;;;;;;8.93;1.98;;;5.30;99.90;;;;;;5046216;28;20060;-65
2023/03/15 00:55:12;;;;;;;11.82;2.28;;;5.40;99.90;;;;;;5047766;28;20045;-65
2023/03/15 00:57:39;;;;;;;14.18;2.75;;;5.10;99.90;;;;;;5039012;28;20087;-65
2023/03/15 01:00:08;;;;;;;14.63;2.60;;;4.40;1.00;;;;;;5037721;28;20387;-65
2023/03/15 01:02:36;;;;;;;9.38;2.00;;;5.10;1.00;;;;;;5032833;28;20519;-65
2023/03/15 01:05:01;;;;;;;15.40;2.60;;;4.60;82.50;;;;;;5044405;28;20052;-65
2023/03/15 01:07:27;;;;;;;13.38;2.45;;;4.40;99.90;;;;;;5049121;28;20044;-65
2023/03/15 01:09:53;;;;;;;18.10;2.70;;;5.40;72.70;;;;;;5049886;28;20033;-65
2023/03/15 01:12:18;;;;;;;8.63;2.05;;;5.40;99.90;;;;;;5044390;28;20065;-65
2023/03/15 01:14:44;;;;;;;16.77;3.05;;;4.80;1.00;;;;;;5045251;28;20041;-65
2023/03/15 01:17:09;;;;;;;8.93;2.10;;;5.00;99.90;;;;;;5049161;28;20400;-65
2023/03/15 01:19:35;;;;;;;14.80;2.35;;;5.10;1.00;;;;;;5048843;28;20040;-65
2023/03/15 01:22:00;;;;;;;8.63;2.05;;;5.10;99.90;;;;;;5045493;28;20048;-65
2023/03/15 01:24:26;;;;;;;10.65;1.95;;;3.80;1.00;;;;;;5044230;28;20044;-65
2023/03/15 01:26:51;;;;;;;8.35;1.75;;;4.90;99.90;;;;;;5046538;28;20034;-65
2023/03/15 01:29:17;;;;;;;13.20;2.05;;;3.60;50.70;;;;;;5041456;28;20045;-65
2023/03/15 01:31:43;;;;;;;12.90;2.05;;;4.90;1.00;;;;;;5047737;28;20032;-65
2023/03/15 01:34:08;;;;;;;10.32;1.92;;;4.90;99.90;;;;;;5049438;28;20444;-65
2023/03/15 01:36:34;;;;;;;6.35;1.92;;;4.30;99.90;;;;;;5050530;28;20103;-65
2023/03/15 01:38:59;;;;;;;13.30;2.40;;;4.50;1.00;;;;;;5049789;28;20048;-65
2023/03/15 01:41:26;;;;;;;10.18;2.35;;;4.30;1.00;;;;;;5047387;28;20041;-65
2023/03/15 01:43:52;;;;;;;9.43;2.33;;;4.40;99.90;;;;;;5050240;28;20087;-65
2023/03/15 01:46:23;;;;;;;12.43;2.13;;;3.50;1.00;;;;;;5046286;28;20033;-65
2023/03/15 01:48:52;;;;;;;9.35;2.13;;;3.70;94.40;;;;;;5049791;28;20029;-65
2023/03/15 01:51:45;;;;;;;11.45;1.77;;;3.60;99.90;;;;;;5040697;28;20041;-65
2023/03/15 01:54:17;;;;;;;11.15;1.75;;;4.20;99.90;;;;;;5052615;28;20029;-65
2023/03/15 01:57:12;;;;;;;9.93;1.75;;;3.50;99.90;;;;;;5051282;28;20085;-65
2023/03/15 02:00:00;;;;;;;9.05;2.00;;;3.30;99.90;;;;;;5051801;28;20048;-65
2023/03/15 02:02:27;;;;;;;11.43;1.75;;;3.80;99.90;;;;;;5038576;28;20362;-65
2023/03/15 02:04:59;;;;;;;6.40;1.70;;;4.40;99.90;;;;;;5046158;28;20040;-65
2023/03/15 02:07:27;;;;;;;12.65;1.90;;;3.20;99.90;;;;;;5060185;28;20037;-65
2023/03/15 02:10:04;;;;;;;9.98;2.35;;;4.30;99.90;;;;;;5052988;28;20092;-65
2023/03/15 02:12:33;;;;;;;7.32;1.90;;;3.90;99.90;;;;;;5051418;28;20033;-65
2023/03/15 02:15:03;;;;;;;9.63;1.92;;;3.90;99.90;;;;;;5052227;28;20090;-65
2023/03/15 02:17:36;;;;;;;12.43;1.98;;;3.90;99.90;;;;;;5047882;28;20037;-65
2023/03/15 02:20:26;;;;;;;21.25;2.15;;;4.00;99.90;;;;;;5052008;28;20041;-65
2023/03/15 02:23:11;;;;;;;8.50;1.85;;;3.20;99.90;;;;;;5034614;28;20053;-65
2023/03/15 02:25:55;;;;;;;12.60;2.03;;;4.40;99.90;;;;;;5034142;28;20049;-65
2023/03/15 02:28:21;;;;;;;12.13;1.90;;;3.10;99.90;;;;;;5039662;28;20287;-65
2023/03/15 02:30:48;;;;;;;9.20;2.10;;;3.00;99.90;;;;;;5033016;28;20076;-64
2023/03/15 02:33:25;;;;;;;11.40;2.10;;;3.80;99.90;;;;;;5032285;28;20034;-65
2023/03/15 02:35:51;;;;;;;11.85;2.15;;;3.30;99.90;;;;;;5046242;28;20045;-64
2023/03/15 02:38:17;;;;;;;16.40;2.30;;;3.30;99.90;;;;;;5043911;28;20051;-64
2023/03/15 02:40:44;;;;;;;14.25;2.33;;;3.60;99.90;;;;;;5034047;28;20375;-64
2023/03/15 02:43:17;;;;;;;14.75;2.42;;;4.60;99.90;;;;;;5049139;28;20077;-64
2023/03/15 02:45:44;;;;;;;21.85;2.95;;;4.70;99.90;;;;;;5048941;28;20041;-64
2023/03/15 02:48:11;;;;;;;19.80;3.03;;;3.70;99.90;;;;;;5046056;28;20044;-64
2023/03/15 02:50:37;;;;;;;20.52;2.60;;;3.80;99.90;;;;;;5051490;28;20048;-65
2023/03/15 02:53:03;;;;;;;17.02;2.45;;;4.30;99.90;;;;;;5051872;28;20029;-65
2023/03/15 02:55:31;;;;;;;20.70;3.22;;;3.60;99.90;;;;;;5050382;28;20098;-64
2023/03/15 02:57:58;;;;;;;12.85;2.47;;;4.30;99.90;;;;;;5048131;28;20049;-64
2023/03/15 03:00:23;;;;;;;12.88;2.55;;;4.00;99.90;;;;;;5050774;28;20063;-64
2023/03/15 03:02:49;;;;;;;9.90;1.75;;;4.90;99.90;;;;;;5052195;28;20119;-64
2023/03/15 03:05:16;;;;;;;10.88;2.47;;;3.80;99.90;;;;;;5050424;28;20045;-64
2023/03/15 03:07:41;;;;;;;19.88;2.60;;;3.60;99.90;;;;;;5043725;28;20029;-64
2023/03/15 03:10:09;;;;;;;17.17;2.38;;;4.50;99.90;;;;;;5053257;28;20528;-64
2023/03/15 03:12:34;;;;;;;18.63;2.58;;;3.90;99.90;;;;;;5041298;28;20487;-64
2023/03/15 03:15:01;;;;;;;22.15;2.63;;;3.90;99.90;;;;;;5039949;28;20044;-64
2023/03/15 03:17:27;;;;;;;18.77;2.63;;;3.50;99.90;;;;;;5045015;28;20429;-64
2023/03/15 03:19:52;;;;;;;10.07;2.05;;;3.70;99.90;;;;;;5050180;28;20045;-64
2023/03/15 03:22:18;;;;;;;11.02;1.85;;;4.40;99.90;;;;;;5033852;28;20085;-64
2023/03/15 03:24:44;;;;;;;18.67;2.33;;;3.70;99.90;;;;;;5052018;28;20041;-64
2023/03/15 03:27:16;;;;;;;14.13;2.17;;;3.70;99.90;;;;;;5049748;28;20034;-64
2023/03/15 03:29:43;;;;;;;10.70;1.92;;;4.70;99.90;;;;;;5050776;28;20521;-65
2023/03/15 03:32:08;;;;;;;10.23;2.10;;;4.10;99.90;;;;;;5050579;28;20521;-65
2023/03/15 03:34:34;;;;;;;10.98;2.00;;;4.50;99.90;;;;;;5051387;28;20037;-64
2023/03/15 03:37:00;;;;;;;13.27;2.33;;;4.40;99.90;;;;;;5047019;28;20033;-65
2023/03/15 03:39:25;;;;;;;11.43;2.28;;;4.40;99.90;;;;;;5051204;28;20055;-64
2023/03/15 03:41:51;;;;;;;17.42;2.20;;;5.10;99.90;;;;;;5044605;28;20050;-64
2023/03/15 03:44:18;;;;;;;10.98;2.13;;;5.00;99.90;;;;;;5040715;28;20052;-64
2023/03/15 03:46:44;;;;;;;8.98;1.85;;;5.20;99.90;;;;;;5032088;28;20063;-65
2023/03/15 03:49:09;;;;;;;15.15;2.40;;;4.80;1.00;;;;;;5043399;28;20032;-64
2023/03/15 03:51:36;;;;;;;16.70;2.13;;;5.20;1.00;;;;;;5036410;28;20064;-64
2023/03/15 03:54:03;;;;;;;7.72;2.20;;;4.70;50.70;;;;;;5040997;28;20103;-65
2023/03/15 03:56:29;;;;;;;13.13;2.25;;;4.60;1.00;;;;;;5038965;28;20075;-65
2023/03/15 03:58:54;;;;;;;12.85;2.20;;;4.80;71.30;;;;;;5043771;28;20029;-64
2023/03/15 04:01:21;;;;;;;16.67;2.83;;;5.00;99.90;;;;;;5051404;28;20087;-64
2023/03/15 04:03:47;;;;;;;17.35;2.95;;;5.20;1.00;;;;;;5046678;28;20055;-64
2023/03/15 04:06:13;;;;;;;11.93;2.47;;;4.50;99.90;;;;;;5050925;28;20045;-65
2023/03/15 04:08:39;;;;;;;13.90;2.28;;;4.40;99.90;;;;;;5046269;28;20116;-65
2023/03/15 04:11:05;;;;;;;14.68;2.33;;;4.70;1.00;;;;;;5049821;28;20048;-64
2023/03/15 04:13:31;;;;;;;13.27;1.90;;;5.00;1.00;;;;;;5031126;28;20395;-65
2023/03/15 04:16:00;;;;;;;17.58;2.97;;;4.60;99.90;;;;;;5047823;28;20116;-65
2023/03/15 04:18:26;;;;;;;13.80;2.10;;;4.70;99.90;;;;;;5041548;28;20487;-65
2023/03/15 04:20:53;;;;;;;17.73;2.20;;;5.20;99.90;;;;;;5030261;28;20049;-65
2023/03/15 04:23:20;;;;;;;13.80;2.20;;;4.60;99.90;;;;;;5031106;28;20538;-64
2023/03/15 04:25:50;;;;;;;14.50;2.67;;;5.20;42.00;;;;;;5036627;28;20041;-65
2023/03/15 04:28:18;;;;;;;20.45;2.40;;;5.20;10.80;;;;;;5050373;28;20045;-64
2023/03/15 04:30:46;;;;;;;14.48;2.45;;;4.60;1.00;;;;;;5047251;28;20037;-64
2023/03/15 04:33:12;;;;;;;16.85;2.67;;;5.10;1.00;;;;;;5050887;28;20029;-65
2023/03/15 04:35:38;;;;;;;11.02;2.67;;;4.40;13.50;;;;;;5050926;28;20106;-64
2023/03/15 04:38:04;;;;;;;19.85;3.28;;;5.10;53.20;;;;;;5041336;28;20055;-65
2023/03/15 04:40:33;;;;;;;16.15;2.50;;;4.40;97.80;;;;;;5050017;28;20040;-65
2023/03/15 04:43:00;;;;;;;13.60;3.10;;;4.90;99.90;;;;;;5050539;28;20079;-65
2023/03/15 04:45:27;;;;;;;23.25;2.67;;;5.00;99.90;;;;;;5048775;28;20045;-64
2023/03/15 04:47:53;;;;;;;17.23;3.13;;;4.90;92.50;;;;;;5048838;28;20032;-65
2023/03/15 04:50:20;;;;;;;16.17;3.33;;;4.90;60.20;;;;;;5046502;28;20089;-65
2023/03/15 04:52:46;;;;;;;15.75;2.67;;;4.90;25.50;;;;;;5050566;28;20694;-65
2023/03/15 04:55:11;;;;;;;12.38;2.20;;;4.10;1.00;;;;;;5043757;28;20041;-65
2023/03/15 04:57:37;;;;;;;15.20;2.58;;;4.70;1.00;;;;;;5039448;28;20038;-65
2023/03/15 05:00:08;;;;;;;13.10;2.67;;;4.20;1.00;;;;;;5043854;28;20120;-65
2023/03/15 05:02:38;;;;;;;17.73;2.55;;;4.80;1.00;;;;;;5044747;28;20490;-64
2023/03/15 05:05:05;;;;;;;16.02;2.55;;;4.20;1.00;;;;;;5048538;28;20036;-64
2023/03/15 05:07:32;;;;;;;20.42;2.55;;;4.20;1.00;;;;;;5041100;28;20120;-65
2023/03/15 05:09:58;;;;;;;15.15;2.63;;;4.00;99.90;;;;;;5052732;28;20036;-65
2023/03/15 05:12:23;;;;;;;18.10;2.63;;;4.20;99.90;;;;;;5043785;28;20064;-65
2023/03/15 05:14:49;;;;;;;16.98;2.97;;;4.60;99.90;;;;;;5053682;28;20045;-65
2023/03/15 05:17:15;;;;;;;14.60;2.50;;;4.10;99.90;;;;;;5050628;28;20049;-65
2023/03/15 05:19:41;;;;;;;16.20;3.20;;;4.30;99.90;;;;;;5046236;28;20041;-65
2023/03/15 05:22:07;;;;;;;18.42;2.85;;;4.60;99.90;;;;;;5054085;28;20064;-65
2023/03/15 05:24:32;;;;;;;13.45;2.72;;;4.40;99.90;;;;;;5047692;28;20048;-65
2023/03/15 05:26:58;;;;;;;17.45;2.78;;;4.10;99.90;;;;;;5037581;28;20033;-65
2023/03/15 05:29:24;;;;;;;15.02;2.60;;;4.70;95.50;;;;;;5035307;28;20052;-65
2023/03/15 05:31:51;;;;;;;14.23;3.35;;;4.80;47.90;;;;;;5035340;28;20040;-65
2023/03/15 05:34:17;;;;;;;16.13;2.35;;;4.40;14.90;;;;;;5040727;28;20490;-65
2023/03/15 05:36:42;;;;;;;13.05;3.15;;;4.80;4.90;;;;;;5053648;28;20056;-65
2023/03/15 05:39:08;;;;;;;14.43;2.83;;;4.60;8.30;;;;;;5040150;28;20041;-65
2023/03/15 05:41:34;;;;;;;20.48;3.33;;;4.20;20.00;;;;;;5046423;28;20518;-65
2023/03/15 05:44:00;;;;;;;18.77;3.10;;;4.80;46.70;;;;;;5044867;28;20056;-65
2023/03/15 05:46:25;;;;;;;19.80;3.47;;;4.40;77.50;;;;;;5045123;28;20041;-65
2023/03/15 05:48:52;;;;;;;18.17;3.13;;;4.60;98.90;;;;;;5052706;28;20033;-65
2023/03/15 05:51:18;;;;;;;16.35;3.10;;;3.90;99.90;;;;;;5038594;28;20517;-65
2023/03/15 05:53:44;;;;;;;15.40;2.80;;;4.30;99.90;;;;;;5037525;28;20041;-65
2023/03/15 05:56:09;;;;;;;15.18;2.67;;;4.30;99.90;;;;;;5049375;28;20045;-65
2023/03/15 05:58:35;;;;;;;14.38;2.53;;;3.80;99.90;;;;;;5052168;28;20123;-65
2023/03/15 06:01:02;;;;;;;14.60;2.80;;;3.80;99.90;;;;;;5049399;28;20091;-64
2023/03/15 06:03:30;;;;;;;20.05;2.75;;;4.00;99.90;;;;;;5042769;28;20033;-65
2023/03/15 06:05:58;;;;;;;24.67;3.72;;;4.00;1.00;;;;;;5047774;28;20048;-64
2023/03/15 06:08:24;;;;;;;14.13;3.58;;;4.30;1.00;;;;;;5044070;28;20047;-65
2023/03/15 06:10:51;;;;;;;16.88;3.28;;;3.80;1.00;;;;;;5035774;28;20120;-64
2023/03/15 06:13:16;;;;;;;21.23;3.30;;;4.50;97.40;;;;;;5040179;28;20048;-65
2023/03/15 06:15:42;;;;;;;17.35;2.65;;;3.70;99.90;;;;;;5042105;28;20037;-64
2023/03/15 06:18:08;;;;;;;18.02;3.28;;;3.70;99.90;;;;;;5042008;28;20044;-65
2023/03/15 06:20:34;;;;;;;26.58;3.15;;;3.70;1.00;;;;;;5042711;28;20037;-65
2023/03/15 06:22:59;;;;;;;15.05;2.47;;;3.70;1.00;;;;;;5038826;28;20076;-65
2023/03/15 06:25:25;;;;;;;16.55;3.20;;;4.50;54.70;;;;;;5042583;28;20072;-64
2023/03/15 06:27:51;;;;;;;18.55;2.72;;;3.50;99.90;;;;;;5038686;28;20562;-64
2023/03/15 06:30:17;;;;;;;30.90;3.45;;;3.70;99.90;;;;;;5051631;28;20486;-65
2023/03/15 06:32:43;;;;;;;16.80;2.85;;;4.80;1.00;;;;;;5042971;28;20037;-65
2023/03/15 06:35:08;;;;;;;9.18;1.92;;;5.00;99.90;;;;;;5046036;28;20047;-65
2023/03/15 06:37:35;;;;;;;10.65;2.80;;;4.50;1.00;;;;;;5040052;28;20045;-65
2023/03/15 06:40:05;;;;;;;6.88;1.75;;;3.70;99.90;;;;;;5025861;28;20144;-65
2023/03/15 06:42:30;;;;;;;4.72;1.10;;;4.70;1.00;;;;;;5037006;28;20566;-64
2023/03/15 06:44:56;;;;;;;6.70;1.50;;;4.20;1.00;;;;;;5049348;28;20128;-65
2023/03/15 06:47:21;;;;;;;6.68;1.25;;;4.20;99.90;;;;;;5048628;28;20410;-65
2023/03/15 06:49:49;;;;;;;4.18;1.30;;;3.10;99.90;;;;;;5043746;28;20040;-65
2023/03/15 06:52:15;;;;;;;7.95;1.33;;;4.10;21.40;;;;;;5033165;28;20128;-64
2023/03/15 06:54:41;;;;;;;6.53;1.50;;;3.90;99.90;;;;;;5034689;28;20487;-64
2023/03/15 06:57:07;;;;;;;6.00;1.50;;;4.10;1.00;;;;;;5045758;28;20045;-64
2023/03/15 06:59:32;;;;;;;5.38;1.20;;;2.90;99.90;;;;;;5037732;28;20128;-64
2023/03/15 07:01:58;;;;;;;5.28;1.40;;;2.80;1.00;;;;;;5034834;28;20030;-64
2023/03/15 07:04:23;;;;;;;7.13;1.45;;;3.30;99.90;;;;;;5046619;28;20051;-64
2023/03/15 07:06:49;;;;;;;8.95;1.35;;;4.20;1.00;;;;;;5044613;28;20041;-65
2023/03/15 07:09:15;;;;;;;9.55;1.40;;;3.50;99.90;;;;;;5036765;28;20482;-65
2023/03/15 07:11:40;;;;;;;6.07;1.13;;;3.20;1.00;;;;;;5047587;28;20033;-65
2023/03/15 07:14:06;;;;;;;3.63;1.25;;;3.00;1.00;;;;;;5032456;28;20060;-65
2023/03/15 07:16:31;;;;;;;7.78;1.60;;;3.20;55.00;;;;;;5033431;28;20045;-65
2023/03/15 07:18:58;;;;;;;5.60;0.95;;;4.10;99.90;;;;;;5048839;28;20053;-64
2023/03/15 07:21:24;;;;;;;4.70;1.23;;;3.60;99.90;;;;;;5050303;28;20065;-63
2023/03/15 07:23:50;;;;;;;13.30;1.92;;;4.60;99.90;;;;;;5051394;28;20086;-63
2023/03/15 07:26:16;;;;;;;7.72;1.70;;;4.00;99.90;;;;;;5051722;28;20041;-63
2023/03/15 07:28:43;;;;;;;6.30;1.48;;;4.00;99.90;;;;;;5051448;28;20565;-63
2023/03/15 07:31:10;;;;;;;6.22;1.25;;;3.70;99.90;;;;;;5047992;28;20044;-63
2023/03/15 07:33:36;;;;;;;5.80;1.60;;;4.60;99.90;;;;;;5034786;28;20498;-63
2023/03/15 07:36:04;;;;;;;5.43;1.20;;;3.80;99.90;;;;;;5045060;28;20103;-63
2023/03/15 07:38:30;;;;;;;4.13;1.60;;;5.10;99.90;;;;;;5039171;28;20045;-63
2023/03/15 07:40:56;;;;;;;5.25;1.40;;;5.00;99.90;;;;;;5033605;28;20044;-63
2023/03/15 07:43:22;;;;;;;8.20;1.50;;;4.00;99.90;;;;;;5043454;28;20055;-63
2023/03/15 07:45:48;;;;;;;7.85;1.70;;;5.30;99.90;;;;;;5039719;28;20056;-63
2023/03/15 07:48:14;;;;;;;7.57;1.75;;;5.40;99.90;;;;;;5046876;28;20053;-62
2023/03/15 07:50:40;;;;;;;5.00;1.95;;;5.50;99.90;;;;;;5035978;28;20046;-62
2023/03/15 07:53:06;;;;;;;5.88;1.55;;;5.60;99.90;;;;;;5044326;28;20037;-62
2023/03/15 07:55:34;;;;;;;6.85;1.70;;;5.30;99.90;;;;;;5047697;28;20036;-62
2023/03/15 07:58:01;;;;;;;7.93;1.50;;;4.90;99.90;;;;;;5048295;28;20683;-62
2023/03/15 08:00:27;;;;;;;5.82;1.58;;;5.40;99.90;;;;;;5049885;28;20182;-62
2023/03/15 08:02:53;;;;;;;12.48;2.03;;;4.50;99.90;;;;;;5044452;28;20072;-62
2023/03/15 08:05:19;;;;;;;8.93;2.20;;;4.70;99.90;;;;;;5031394;28;20124;-62
2023/03/15 08:07:46;;;;;;;14.75;2.25;;;4.70;99.90;;;;;;5032955;28;20155;-62
2023/03/15 08:10:12;;;;;;;10.48;2.08;;;5.20;99.90;;;;;;5043481;28;20072;-63
2023/03/15 08:12:40;;;;;;;14.13;2.13;;;5.10;99.90;;;;;;5036688;28;20033;-60
2023/03/15 08:15:07;;;;;;;7.72;1.80;;;5.20;99.90;;;;;;5036749;28;20526;-62
2023/03/15 08:17:32;;;;;;;15.77;2.25;;;6.40;99.90;;;;;;5021811;28;20049;-61
2023/03/15 08:19:58;;;;;;;10.93;2.10;;;6.00;99.90;;;;;;5032858;28;20045;-60
2023/03/15 08:22:23;;;;;;;8.30;2.00;;;7.40;99.90;;;;;;5034209;28;20080;-60
2023/03/15 08:24:52;;;;;;;10.70;2.35;;;8.00;99.90;;;;;;5040041;28;20044;-61
2023/03/15 08:27:18;;;;;;;10.63;2.30;;;8.30;99.90;;;;;;5037781;28;20226;-60
2023/03/15 08:29:43;;;;;;;10.23;2.58;;;9.00;99.90;;;;;;5036579;28;20041;-61
2023/03/15 08:32:09;;;;;;;7.57;2.20;;;9.30;99.90;;;;;;5035099;28;20102;-61
2023/03/15 08:34:36;;;;;;;16.63;3.25;;;9.70;99.90;;;;;;5046762;28;20120;-61
2023/03/15 08:37:02;;;;;;;13.15;2.95;;;9.70;99.90;;;;;;5041556;28;20045;-61
2023/03/15 08:39:27;;;;;;;11.40;3.33;;;9.00;99.90;;;;;;5044753;28;20577;-61
2023/03/15 08:41:53;;;;;;;14.20;3.80;;;8.50;99.90;;;;;;5035708;28;20033;-61
2023/03/15 08:44:19;;;;;;;19.35;3.70;;;8.70;99.90;;;;;;5039498;28;20532;-61
2023/03/15 08:46:44;;;;;;;9.52;2.72;;;8.50;99.90;;;;;;5039570;28;20122;-61
2023/03/15 08:49:10;;;;;;;14.20;3.20;;;8.50;99.90;;;;;;5043642;28;20056;-61
2023/03/15 08:51:35;;;;;;;17.55;3.17;;;8.00;1.00;;;;;;5040465;28;20042;-61
2023/03/15 08:54:02;;;;;;;12.48;2.72;;;8.30;1.00;;;;;;5035045;28;20041;-61
2023/03/15 08:56:28;;;;;;;9.43;2.70;;;8.10;1.00;;;;;;5048659;28;20033;-61
2023/03/15 08:58:54;;;;;;;13.40;3.13;;;8.00;99.90;;;;;;5044064;28;20025;-61
2023/03/15 09:01:20;;;;;;;11.70;2.75;;;8.10;1.00;;;;;;5044559;28;20051;-61
2023/03/15 09:03:45;;;;;;;10.02;2.30;;;8.30;99.90;;;;;;5040808;28;20479;-61
2023/03/15 09:06:11;;;;;;;11.57;3.00;;;8.30;99.90;;;;;;5039557;28;20092;-61
2023/03/15 09:08:37;;;;;;;10.13;2.63;;;8.20;55.60;;;;;;5034871;28;20033;-61
2023/03/15 09:11:03;;;;;;;8.80;2.38;;;8.40;1.00;;;;;;5038688;28;20398;-61
2023/03/15 09:13:29;;;;;;;12.30;2.97;;;8.70;1.00;;;;;;5050204;28;20043;-61
2023/03/15 09:15:56;;;;;;;9.93;2.10;;;8.80;1.00;;;;;;5048751;28;20044;-61
2023/03/15 09:18:22;;;;;;;9.57;2.70;;;8.60;1.00;;;;;;5038505;28;20041;-61
2023/03/15 09:20:48;;;;;;;9.75;2.70;;;8.10;99.90;;;;;;5039751;28;20033;-61
2023/03/15 09:23:14;;;;;;;12.52;3.25;;;7.70;99.90;;;;;;5038101;28;20086;-61
2023/03/15 09:25:39;;;;;;;22.70;3.42;;;7.50;99.90;;;;;;5047612;28;20533;-60
2023/03/15 09:28:07;;;;;;;11.63;2.70;;;7.50;99.90;;;;;;5044781;28;20122;-61
2023/03/15 09:30:37;;;;;;;15.95;3.47;;;7.60;99.90;;;;;;5037246;28;20037;-61
2023/03/15 09:33:03;;;;;;;12.52;2.55;;;7.80;99.90;;;;;;5036931;28;20037;-61
2023/03/15 09:35:29;;;;;;;11.45;2.70;;;7.80;99.90;;;;;;5037715;28;20099;-61
2023/03/15 09:37:54;;;;;;;9.07;2.55;;;7.60;99.90;;;;;;5033888;28;20044;-61
2023/03/15 09:40:43;;;;;;;12.70;2.72;;;7.60;99.90;;;;;;5040575;28;20480;-61
2023/03/15 09:43:28;;;;;;;14.90;2.58;;;7.40;99.90;;;;;;5039613;28;20045;-61
2023/03/15 09:46:04;;;;;;;11.00;2.88;;;7.40;99.90;;;;;;5042835;28;20120;-61
2023/03/15 09:48:31;;;;;;;;;;;7.50;99.90;;;;;;5037169;28;20034;-61
2023/03/15 09:51:14;;;;;;;11.35;2.70;;;7.50;99.90;;;;;;5034099;28;19917;-61
2023/03/15 09:53:46;;;;;;;7.88;2.20;;;7.50;99.90;;;;;;5038873;28;20040;-61
2023/03/15 09:56:36;;;;;;;14.38;3.30;;;7.60;99.90;;;;;;5043665;28;20033;-61
2023/03/15 09:59:03;;;;;;;10.40;2.25;;;7.80;99.90;;;;;;5039547;28;20060;-61
2023/03/15 10:01:33;;;;;;;10.55;2.20;;;7.90;99.90;;;;;;5051534;28;20544;-61
2023/03/15 10:04:09;;;;;;;9.15;2.38;;;8.00;99.00;;;;;;5046656;28;20052;-61
2023/03/15 10:06:37;;;;;;;11.23;2.80;;;8.00;91.70;;;;;;5051954;28;20093;-61
2023/03/15 10:09:11;;;;;;;12.90;3.08;;;8.00;63.60;;;;;;5038543;28;20040;-61
2023/03/15 10:11:54;;;;;;;12.10;2.97;;;8.20;45.60;;;;;;5037046;28;20045;-61
2023/03/15 10:15:02;;;;;;;7.35;2.00;;;8.10;13.30;;;;;;5046461;28;20129;-62
2023/03/15 10:18:12;;;;;;;8.75;2.45;;;8.00;1.00;;;;;;5025817;28;20102;-61
2023/03/15 10:20:48;;;;;;;10.73;2.60;;;8.10;1.00;;;;;;5034279;28;20118;-61
2023/03/15 10:23:38;;;;;;;12.30;2.65;;;8.10;1.00;;;;;;5040438;28;20065;-60
2023/03/15 10:26:07;;;;;;;12.23;2.65;;;8.00;1.00;;;;;;5040551;28;20076;-61
2023/03/15 10:28:36;;;;;;;9.52;2.20;;;8.10;1.00;;;;;;5035587;28;20041;-61
2023/03/15 10:31:14;;;;;;;10.45;2.72;;;8.40;1.00;;;;;;5040410;28;20494;-61
2023/03/15 10:33:41;;;;;;;9.95;2.53;;;8.60;1.00;;;;;;5050063;28;20402;-61
2023/03/15 10:36:17;;;;;;;13.32;3.22;;;8.40;1.00;;;;;;5045522;28;20053;-60
2023/03/15 10:38:44;;;;;;;12.57;3.20;;;8.20;1.00;;;;;;5044797;28;20052;-61
2023/03/15 10:41:13;;;;;;;6.43;2.35;;;8.30;1.00;;;;;;5038539;28;20521;-61
2023/03/15 10:43:40;;;;;;;16.02;2.85;;;8.40;1.00;;;;;;5042397;28;20045;-61
2023/03/15 10:46:11;;;;;;;11.00;2.67;;;8.30;1.00;;;;;;5036704;28;20044;-61
2023/03/15 10:48:55;;;;;;;12.27;3.40;;;8.20;1.00;;;;;;5043110;28;20030;-61
2023/03/15 10:51:40;;;;;;;16.27;3.08;;;8.30;1.00;;;;;;5032640;28;20049;-61
2023/03/15 10:54:22;;;;;;;10.13;2.70;;;8.40;1.00;;;;;;5036620;28;20048;-61
2023/03/15 10:57:04;;;;;;;10.27;2.30;;;8.60;1.00;;;;;;5045259;28;20483;-61
2023/03/15 10:59:33;;;;;;;10.55;2.55;;;8.80;1.00;;;;;;5040645;28;20037;-61
2023/03/15 11:02:11;;;;;;;11.07;2.53;;;8.80;1.00;;;;;;5040848;28;20041;-61
2023/03/15 11:04:40;;;;;;;7.47;2.45;;;8.70;1.00;;;;;;5036241;28;20564;-67
2023/03/15 11:07:07;;;;;;;9.90;2.22;;;8.60;1.00;;;;;;5035546;28;20037;-61
2023/03/15 11:09:41;;;;;;;7.38;2.33;;;8.50;1.00;;;;;;5035778;28;20775;-61
2023/03/15 11:12:08;;;;;;;13.80;2.40;;;8.50;1.00;;;;;;5044515;28;20041;-61
2023/03/15 11:14:36;;;;;;;13.68;2.72;;;8.80;1.00;;;;;;5048500;28;20407;-61
2023/03/15 11:17:04;;;;;;;11.10;2.45;;;8.90;1.00;;;;;;5046214;28;20562;-61
2023/03/15 11:19:33;;;;;;;14.90;2.90;;;9.10;1.00;;;;;;5032496;28;20190;-61
2023/03/15 11:22:00;;;;;;;11.13;2.40;;;9.20;1.00;;;;;;5045664;28;20060;-61
2023/03/15 11:24:31;;;;;;;11.15;2.13;;;9.00;1.00;;;;;;5047094;28;20041;-61
2023/03/15 11:27:00;;;;;;;12.60;2.40;;;8.80;1.00;;;;;;5041201;28;20038;-61
2023/03/15 11:29:32;;;;;;;12.43;2.50;;;8.90;1.00;;;;;;5035308;28;20037;-61
2023/03/15 11:32:09;;;;;;;9.93;2.28;;;8.80;1.00;;;;;;5044063;28;20037;-61
2023/03/15 11:34:38;;;;;;;10.75;2.55;;;9.00;1.00;;;;;;5040686;28;20041;-61
2023/03/15 11:37:15;;;;;;;11.90;2.47;;;8.90;1.00;;;;;;5041304;28;20400;-61
2023/03/15 11:40:12;;;;;;;10.55;2.33;;;8.90;1.00;;;;;;5044709;28;20048;-61
2023/03/15 11:43:03;;;;;;;10.88;2.60;;;9.00;1.00;;;;;;5044934;28;20052;-61
2023/03/15 11:45:40;;;;;;;12.05;2.47;;;9.10;1.00;;;;;;5038735;28;20396;-61
2023/03/15 11:48:44;;;;;;;11.98;2.42;;;9.30;1.00;;;;;;5036379;28;20618;-61
2023/03/15 11:51:11;;;;;;;10.20;2.30;;;9.40;1.00;;;;;;5029408;28;20141;-61
2023/03/15 11:54:03;;;;;;;8.40;2.10;;;9.40;1.00;;;;;;5065462;28;20079;-61
2023/03/15 11:56:50;;;;;;;8.68;2.78;;;9.40;1.00;;;;;;5040563;28;20527;-61
2023/03/15 11:59:31;;;;;;;11.18;2.50;;;9.40;1.00;;;;;;5035107;28;20183;-61
2023/03/15 12:02:20;;;;;;;10.55;2.45;;;9.30;1.00;;;;;;5041971;28;20043;-61
2023/03/15 12:04:48;;;;;;;11.57;2.58;;;9.20;1.00;;;;;;5017948;28;20136;-61
2023/03/15 12:07:22;;;;;;;11.27;2.30;;;9.10;1.00;;;;;;5041990;28;20041;-60
2023/03/15 12:09:51;;;;;;;11.50;2.20;;;9.20;1.00;;;;;;5036146;28;20064;-61
2023/03/15 12:12:25;;;;;;;11.73;2.67;;;9.20;1.00;;;;;;5045295;28;20443;-61
2023/03/15 12:15:06;;;;;;;13.30;2.72;;;9.40;1.00;;;;;;5048272;28;20052;-61
2023/03/15 12:17:36;;;;;;;9.68;2.35;;;9.50;1.00;;;;;;5051773;28;20045;-61
2023/03/15 12:20:19;;;;;;;12.02;2.63;;;9.60;1.00;;;;;;5036461;28;20045;-61
2023/03/15 12:22:52;;;;;;;9.45;2.03;;;9.60;1.00;;;;;;5038367;28;20065;-61
2023/03/15 12:25:44;;;;;;;10.40;2.17;;;9.40;1.00;;;;;;5042067;28;20491;-61
2023/03/15 12:28:40;;;;;;;10.73;1.95;;;9.40;1.00;;;;;;5042836;28;20036;-61
2023/03/15 12:31:11;;;;;;;13.30;3.78;;;9.00;1.00;;;;;;5046186;28;20040;-60
2023/03/15 12:33:57;;;;;;;12.45;2.60;;;8.70;1.00;;;;;;5048040;28;20040;-61
2023/03/15 12:36:34;;;;;;;10.38;2.38;;;8.60;1.00;;;;;;5041121;28;20051;-61
2023/03/15 12:39:20;;;;;;;9.43;2.17;;;8.50;1.00;;;;;;5037580;28;20041;-60
2023/03/15 12:41:48;;;;;;;10.38;2.30;;;8.80;1.00;;;;;;5044684;28;20521;-61
2023/03/15 12:44:37;;;;;;;10.90;2.35;;;8.80;1.00;;;;;;5046384;28;20414;-61
2023/03/15 12:47:05;;;;;;;9.80;2.10;;;8.90;1.00;;;;;;5044751;28;20486;-61
2023/03/15 12:49:42;;;;;;;11.18;3.35;;;9.00;1.00;;;;;;5040161;28;20033;-61
2023/03/15 12:52:26;;;;;;;10.63;2.10;;;9.20;1.00;;;;;;5035434;28;20473;-61
2023/03/15 12:55:04;;;;;;;8.90;2.15;;;9.20;1.00;;;;;;5030831;28;20049;-60
2023/03/15 12:57:37;;;;;;;9.68;2.35;;;9.10;1.00;;;;;;5038033;28;20434;-61
2023/03/15 13:00:19;;;;;;;7.47;2.00;;;9.00;1.00;;;;;;5035597;28;20041;-62
2023/03/15 13:02:48;;;;;;;8.02;2.22;;;8.80;1.00;;;;;;5039398;28;20054;-61
2023/03/15 13:06:02;;;;;;;12.77;2.72;;;8.60;1.00;;;;;;5044033;28;20057;-61